Time;durP1;ratioP1;P1;durP2;ratioP2;P2;SDS_P1;SDS_P2;PMS_P1;PMS_P2;Temp;Humidity;BMP_temperature;BMP_pressure;BME280_temperature;BME280_humidity;BME280_pressure;Samples;Min_cycle;Max_cycle;Signal;HPM_P1;HPM_P2
2021/11/10 00:00:22;;;;;;;20.33;13.98;;;7.10;99.90;;;6.79;100.00;102026.97;4119617;28;20035;-66
2021/11/10 00:02:23;;;;;;;25.00;15.57;;;7.20;99.90;;;6.68;100.00;102025.91;4119428;28;20038;-66
2021/11/10 00:04:24;;;;;;;15.98;11.82;;;7.10;99.90;;;6.56;100.00;102029.31;4119378;28;20023;-66
2021/11/10 00:06:25;;;;;;;17.05;11.73;;;7.10;99.90;;;6.65;100.00;102030.50;4119413;28;20054;-66
2021/11/10 00:08:26;;;;;;;24.05;14.23;;;7.10;99.90;;;6.69;100.00;102029.34;4119586;28;20023;-66
2021/11/10 00:10:27;;;;;;;26.80;16.70;;;7.10;99.90;;;6.67;100.00;102021.59;4119443;28;20086;-66
2021/11/10 00:12:28;;;;;;;24.25;16.13;;;7.10;99.90;;;6.68;100.00;102022.44;4119222;28;20027;-66
2021/11/10 00:14:29;;;;;;;23.50;16.15;;;7.10;99.90;;;6.74;100.00;102022.03;4119455;28;20042;-66
2021/11/10 00:16:30;;;;;;;26.33;17.50;;;7.10;99.90;;;6.71;100.00;102021.41;4119529;28;20105;-66
2021/11/10 00:18:31;;;;;;;28.42;16.05;;;7.10;99.90;;;6.65;100.00;102018.25;4119452;28;20041;-66
2021/11/10 00:20:32;;;;;;;25.00;15.65;;;7.10;99.90;;;6.59;100.00;102018.63;4118966;28;20106;-66
2021/11/10 00:22:33;;;;;;;24.33;16.23;;;7.10;99.90;;;6.66;100.00;102025.16;4119536;28;20035;-66
2021/11/10 00:24:34;;;;;;;23.20;15.32;;;7.00;99.90;;;6.62;100.00;102028.09;4122263;28;20102;-66
2021/11/10 00:26:35;;;;;;;24.45;15.82;;;7.10;99.90;;;6.56;100.00;102021.47;4122401;28;20034;-66
2021/11/10 00:28:36;;;;;;;23.63;15.43;;;7.00;99.90;;;6.49;100.00;102017.53;4122291;28;20065;-66
2021/11/10 00:30:37;;;;;;;21.17;15.48;;;7.00;99.90;;;6.50;100.00;102019.22;4122474;28;20031;-66
2021/11/10 00:32:38;;;;;;;26.70;16.55;;;7.00;99.90;;;6.48;100.00;102015.84;4128540;28;20041;-66
2021/11/10 00:34:39;;;;;;;25.80;15.85;;;7.00;99.90;;;6.47;100.00;101998.47;4132936;28;20030;-66
2021/11/10 00:36:39;;;;;;;24.95;15.55;;;7.00;99.90;;;6.58;100.00;102008.25;4138021;28;20090;-66
2021/11/10 00:38:41;;;;;;;25.08;15.30;;;7.00;99.90;;;6.53;100.00;102012.94;4138386;28;20398;-66
2021/11/10 00:40:42;;;;;;;22.52;15.30;;;7.00;99.90;;;6.52;100.00;102006.84;4138196;28;20050;-66
2021/11/10 00:42:43;;;;;;;22.40;14.75;;;7.00;99.90;;;6.54;100.00;101994.47;4138301;28;20080;-66
2021/11/10 00:44:44;;;;;;;22.73;14.80;;;6.90;99.90;;;6.48;100.00;102004.53;4138502;28;20030;-66
2021/11/10 00:46:45;;;;;;;25.05;14.52;;;6.90;99.90;;;6.47;100.00;102003.69;4138337;28;20104;-66
2021/11/10 00:48:46;;;;;;;15.82;11.85;;;6.90;99.90;;;6.41;100.00;101993.59;4131466;28;20022;-66
2021/11/10 00:50:47;;;;;;;20.20;13.20;;;6.90;99.90;;;6.30;100.00;102003.91;4121955;28;20027;-66
2021/11/10 00:52:48;;;;;;;18.58;12.07;;;6.80;99.90;;;6.23;100.00;102009.66;4121975;28;20101;-66
2021/11/10 00:54:50;;;;;;;19.58;12.48;;;6.70;99.90;;;6.21;100.00;102001.91;4122255;28;20379;-66
2021/11/10 00:56:51;;;;;;;20.17;12.70;;;6.80;99.90;;;6.26;100.00;102001.59;4122232;28;20397;-66
2021/11/10 00:58:52;;;;;;;18.38;13.10;;;6.70;99.90;;;6.26;100.00;101989.34;4122035;28;20035;-66
2021/11/10 01:00:53;;;;;;;18.50;12.25;;;6.70;99.90;;;6.38;100.00;102017.41;4121928;28;20034;-66
2021/11/10 01:02:55;;;;;;;21.33;15.43;;;6.70;99.90;;;6.17;100.00;102004.81;4122006;28;20066;-66
2021/11/10 01:04:55;;;;;;;24.90;16.23;;;6.70;99.90;;;6.12;100.00;102005.94;4126881;28;20494;-66
2021/11/10 01:06:56;;;;;;;23.35;14.00;;;6.70;99.90;;;6.17;100.00;102002.19;4130996;28;20061;-66
2021/11/10 01:08:57;;;;;;;21.98;14.23;;;6.70;99.90;;;6.30;100.00;102017.03;4137897;28;20030;-66
2021/11/10 01:11:00;;;;;;;21.65;14.07;;;6.60;99.90;;;6.37;100.00;102007.84;4137795;28;20482;-66
2021/11/10 01:13:02;;;;;;;25.02;14.48;;;6.70;99.90;;;6.21;100.00;101999.28;4137978;28;20461;-66
2021/11/10 01:15:07;;;;;;;22.40;15.70;;;6.70;99.90;;;6.17;100.00;102005.66;4137863;28;20042;-66
2021/11/10 01:17:08;;;;;;;20.48;13.98;;;6.60;99.90;;;6.15;100.00;102006.69;4137756;28;20035;-66
2021/11/10 01:19:09;;;;;;;20.88;14.68;;;6.60;99.90;;;6.29;100.00;102011.88;4137797;28;20084;-66
2021/11/10 01:21:10;;;;;;;18.98;14.13;;;6.70;99.90;;;6.28;100.00;102013.66;4137604;28;20474;-66
2021/11/10 01:23:12;;;;;;;24.63;14.95;;;6.60;99.90;;;6.18;100.00;102002.09;4137746;28;20072;-66
2021/11/10 01:25:13;;;;;;;19.23;14.13;;;6.60;99.90;;;6.19;100.00;102006.38;4137693;28;20049;-66
2021/11/10 01:27:15;;;;;;;26.88;14.07;;;6.60;99.90;;;6.06;100.00;101992.41;4137512;28;20089;-66
2021/11/10 01:29:16;;;;;;;27.13;16.35;;;6.60;99.90;;;6.02;100.00;102007.47;4137720;28;20128;-66
2021/11/10 01:31:16;;;;;;;23.63;14.93;;;6.50;99.90;;;6.09;100.00;102002.69;4137815;28;20058;-66
2021/11/10 01:33:17;;;;;;;25.30;18.17;;;6.50;99.90;;;6.06;100.00;101997.63;4137551;28;20030;-66
2021/11/10 01:35:19;;;;;;;27.63;17.80;;;6.50;99.90;;;6.11;100.00;102000.81;4137132;28;20125;-66
2021/11/10 01:37:20;;;;;;;34.42;19.27;;;6.50;99.90;;;6.06;100.00;101993.22;4137600;28;20062;-66
2021/11/10 01:39:22;;;;;;;30.75;19.05;;;6.50;99.90;;;6.17;100.00;101999.56;4136542;28;20022;-66
2021/11/10 01:41:23;;;;;;;30.83;19.45;;;6.50;99.90;;;6.12;100.00;101999.88;4133937;28;20050;-66
2021/11/10 01:43:24;;;;;;;31.77;20.58;;;6.50;99.90;;;6.08;100.00;101993.13;4137404;28;20034;-66
2021/11/10 01:45:25;;;;;;;28.50;18.35;;;6.50;99.90;;;6.20;100.00;102005.47;4137414;28;20073;-66
2021/11/10 01:47:26;;;;;;;29.52;19.05;;;6.60;99.90;;;6.29;100.00;101999.63;4137296;28;20030;-66
2021/11/10 01:49:28;;;;;;;28.02;18.90;;;6.70;99.90;;;6.33;100.00;101995.84;4124968;28;20031;-66
2021/11/10 01:51:29;;;;;;;33.05;20.27;;;6.70;99.90;;;6.23;100.00;101997.41;4121042;28;20038;-66
2021/11/10 01:53:30;;;;;;;29.73;18.83;;;6.80;99.90;;;6.13;100.00;101994.53;4121266;28;20031;-66
2021/11/10 01:55:32;;;;;;;24.33;16.23;;;6.70;99.90;;;6.22;100.00;101998.34;4121229;28;20062;-66
2021/11/10 01:57:34;;;;;;;26.13;17.23;;;6.80;99.90;;;6.24;100.00;101980.75;4121183;28;20084;-66
2021/11/10 01:59:46;;;;;;;33.80;19.67;;;6.90;99.90;;;6.39;100.00;101998.09;4121070;28;20039;-66
2021/11/10 02:01:47;;;;;;;31.80;19.35;;;6.80;99.90;;;6.42;100.00;101995.28;4121099;28;20517;-66
2021/11/10 02:03:49;;;;;;;23.58;16.58;;;7.00;99.90;;;6.49;100.00;101991.31;4120981;28;20079;-66
2021/11/10 02:05:51;;;;;;;26.05;16.05;;;7.00;99.90;;;6.54;100.00;101996.28;4120846;28;20077;-66
2021/11/10 02:07:52;;;;;;;23.92;17.08;;;7.10;99.90;;;6.52;100.00;101978.03;4121112;28;20469;-66
2021/11/10 02:09:54;;;;;;;28.30;17.55;;;7.10;99.90;;;6.53;100.00;101989.34;4120941;28;20027;-66
2021/11/10 02:11:58;;;;;;;25.42;16.55;;;7.10;99.90;;;6.54;100.00;101977.94;4121042;28;20497;-66
2021/11/10 02:14:01;;;;;;;31.88;18.33;;;7.20;99.90;;;6.57;100.00;101973.31;4120821;28;20026;-66
2021/11/10 02:16:02;;;;;;;24.65;15.60;;;7.20;99.90;;;6.61;100.00;101964.31;4152047;28;20034;-66
2021/11/10 02:18:04;;;;;;;22.83;15.38;;;7.30;99.90;;;6.67;100.00;101974.41;4120971;28;20038;-66
2021/11/10 02:20:10;;;;;;;23.77;16.90;;;7.20;99.90;;;6.73;100.00;101969.69;4120583;28;20077;-66
2021/11/10 02:22:17;;;;;;;23.02;15.20;;;7.20;99.90;;;6.77;100.00;101973.78;4120643;28;20403;-66
2021/11/10 02:24:21;;;;;;;21.70;15.32;;;7.20;99.90;;;6.71;100.00;101975.03;4120836;28;20152;-66
2021/11/10 02:26:23;;;;;;;24.55;15.20;;;7.20;99.90;;;6.67;100.00;101977.03;4120733;28;20034;-66
2021/11/10 02:28:23;;;;;;;19.27;14.13;;;7.20;99.90;;;6.84;100.00;101982.94;4120540;28;20033;-66
2021/11/10 02:30:26;;;;;;;24.73;15.18;;;7.20;99.90;;;6.76;100.00;101969.47;4120455;28;20035;-66
2021/11/10 02:32:27;;;;;;;18.50;14.82;;;7.30;99.90;;;6.77;100.00;101972.03;4120618;28;20034;-66
2021/11/10 02:34:28;;;;;;;20.73;14.30;;;7.30;99.90;;;6.71;100.00;101967.19;4120673;28;20406;-66
2021/11/10 02:36:31;;;;;;;21.92;14.77;;;7.30;99.90;;;6.69;100.00;101976.91;4120257;28;20031;-66
2021/11/10 02:38:33;;;;;;;24.25;15.50;;;7.20;99.90;;;6.56;100.00;101969.03;4123220;28;20030;-66
2021/11/10 02:40:35;;;;;;;22.20;15.38;;;7.10;99.90;;;6.50;100.00;101971.19;4136488;28;20189;-66
2021/11/10 02:42:36;;;;;;;22.17;15.35;;;7.00;99.90;;;6.37;100.00;101968.53;4136290;28;20045;-66
2021/11/10 02:44:37;;;;;;;22.23;15.10;;;7.00;99.90;;;6.32;100.00;101962.75;4136423;28;20394;-66
2021/11/10 02:46:38;;;;;;;25.02;14.63;;;6.90;99.90;;;6.40;100.00;101965.72;4135997;28;20516;-66
2021/11/10 02:48:39;;;;;;;27.23;15.52;;;6.80;99.90;;;6.39;100.00;101968.44;4129806;28;20031;-66
2021/11/10 02:50:40;;;;;;;21.95;13.73;;;6.80;99.90;;;6.26;100.00;101968.38;4120253;28;20086;-66
2021/11/10 02:52:41;;;;;;;23.17;15.05;;;6.70;99.90;;;6.15;100.00;101962.16;4120177;28;20105;-66
2021/11/10 02:54:53;;;;;;;24.35;16.63;;;6.70;99.90;;;6.06;100.00;101961.78;4135009;28;20406;-66
2021/11/10 02:56:58;;;;;;;25.00;14.88;;;6.60;99.90;;;6.07;100.00;101960.00;4127635;28;20506;-66
2021/11/10 02:58:59;;;;;;;20.33;14.50;;;6.60;99.90;;;6.15;100.00;101949.91;4136229;28;20037;-66
2021/11/10 03:01:03;;;;;;;17.70;13.25;;;6.50;99.90;;;6.16;100.00;101950.72;4136113;28;20393;-66
2021/11/10 03:03:04;;;;;;;15.80;12.60;;;6.50;99.90;;;6.07;100.00;101942.53;4136321;28;20034;-66
2021/11/10 03:05:06;;;;;;;19.33;13.18;;;6.50;99.90;;;5.96;100.00;101936.28;4135854;28;20027;-66
2021/11/10 03:07:07;;;;;;;16.30;12.75;;;6.50;99.90;;;5.91;100.00;101943.59;4136199;28;20169;-66
2021/11/10 03:09:08;;;;;;;19.65;14.10;;;6.40;99.90;;;5.87;100.00;101939.47;4136183;28;20034;-66
2021/11/10 03:11:09;;;;;;;18.45;12.85;;;6.30;99.90;;;5.95;100.00;101943.28;4136254;28;20497;-66
2021/11/10 03:13:10;;;;;;;14.43;11.98;;;6.30;99.90;;;5.86;100.00;101943.88;4136193;28;20113;-66
2021/11/10 03:15:11;;;;;;;16.80;12.57;;;6.30;99.90;;;5.76;100.00;101937.53;4135993;28;20030;-66
2021/11/10 03:17:16;;;;;;;19.77;14.25;;;6.30;99.90;;;5.71;100.00;101936.09;4135944;28;20022;-66
2021/11/10 03:19:18;;;;;;;18.67;14.48;;;6.20;99.90;;;5.51;100.00;101932.97;4135947;28;20038;-66
2021/11/10 03:21:19;;;;;;;19.98;13.68;;;6.20;99.90;;;5.55;100.00;101944.09;4134499;28;20030;-66
2021/11/10 03:23:21;;;;;;;16.92;13.43;;;6.20;99.90;;;5.64;100.00;101937.44;4131079;28;20022;-66
2021/11/10 03:25:22;;;;;;;19.60;13.23;;;6.10;99.90;;;5.86;100.00;101943.03;4135984;28;20033;-66
2021/11/10 03:27:23;;;;;;;14.63;11.75;;;6.10;99.90;;;5.81;100.00;101939.84;4135931;28;20022;-66
2021/11/10 03:29:25;;;;;;;17.02;12.38;;;6.10;99.90;;;5.58;100.00;101930.81;4136084;28;20040;-66
2021/11/10 03:31:26;;;;;;;15.02;11.50;;;6.10;99.90;;;5.66;100.00;101938.16;4135868;28;20018;-66
2021/11/10 03:33:26;;;;;;;15.48;11.90;;;6.00;99.90;;;5.72;100.00;101937.78;4135731;28;20034;-66
2021/11/10 03:35:28;;;;;;;18.20;12.00;;;6.00;99.90;;;5.58;100.00;101931.63;4135702;28;20187;-66
2021/11/10 03:37:29;;;;;;;17.30;11.38;;;6.10;99.90;;;5.63;100.00;101940.97;4135843;28;20030;-66
2021/11/10 03:39:30;;;;;;;14.50;11.00;;;6.00;99.90;;;5.64;100.00;101933.06;4135916;28;20045;-66
2021/11/10 03:41:31;;;;;;;17.95;12.43;;;6.00;99.90;;;5.59;100.00;101941.16;4135429;28;20572;-66
2021/11/10 03:43:32;;;;;;;15.82;11.70;;;6.00;99.90;;;5.58;100.00;101934.25;4135697;28;20025;-66
2021/11/10 03:45:33;;;;;;;15.77;12.25;;;6.00;99.90;;;5.62;100.00;101937.50;4135825;28;20030;-66
2021/11/10 03:47:34;;;;;;;18.58;11.18;;;6.00;99.90;;;5.73;100.00;101924.63;4135580;28;20057;-66
2021/11/10 03:49:35;;;;;;;15.38;11.32;;;6.00;99.90;;;5.68;100.00;101920.59;4122500;28;20085;-66
2021/11/10 03:51:37;;;;;;;18.83;11.32;;;6.10;99.90;;;5.49;100.00;101908.66;4119545;28;20030;-66
2021/11/10 03:53:38;;;;;;;23.52;12.57;;;6.00;99.90;;;5.46;100.00;101913.25;4119711;28;20039;-66
2021/11/10 03:55:40;;;;;;;18.50;12.23;;;6.00;99.90;;;5.55;100.00;101913.50;4119859;28;20035;-66
2021/11/10 03:57:41;;;;;;;16.10;11.93;;;5.90;99.90;;;5.56;100.00;101916.97;4119718;28;20409;-66
2021/11/10 03:59:42;;;;;;;12.50;10.25;;;6.00;99.90;;;5.56;100.00;101906.50;4122950;28;20031;-66
2021/11/10 04:01:44;;;;;;;18.83;10.77;;;5.90;99.90;;;5.51;100.00;101905.94;4122859;28;20111;-66
2021/11/10 04:03:45;;;;;;;15.20;10.63;;;5.90;99.90;;;5.51;100.00;101912.03;4122882;28;20019;-66
2021/11/10 04:05:46;;;;;;;15.23;10.27;;;5.90;99.90;;;5.45;100.00;101914.16;4122500;28;20031;-66
2021/11/10 04:07:47;;;;;;;12.63;10.07;;;5.90;99.90;;;5.47;100.00;101905.28;4122925;28;20042;-66
2021/11/10 04:09:49;;;;;;;12.52;10.23;;;5.90;99.90;;;5.39;100.00;101912.78;4122853;28;20073;-66
2021/11/10 04:11:50;;;;;;;12.15;9.50;;;5.90;99.90;;;5.43;100.00;101916.91;4122756;28;20038;-66
2021/11/10 04:13:53;;;;;;;9.88;8.73;;;5.80;99.90;;;5.39;100.00;101918.00;4122720;28;20035;-66
2021/11/10 04:15:54;;;;;;;12.23;10.27;;;5.80;99.90;;;5.22;100.00;101918.22;4122832;28;20034;-66
2021/11/10 04:17:55;;;;;;;12.45;10.02;;;5.80;99.90;;;5.29;100.00;101921.25;4122929;28;20090;-66
2021/11/10 04:19:56;;;;;;;14.48;10.38;;;5.80;99.90;;;5.36;100.00;101923.44;4122500;28;20027;-66
2021/11/10 04:21:57;;;;;;;10.75;9.13;;;5.70;99.90;;;5.41;100.00;101929.22;4122635;28;20034;-66
2021/11/10 04:23:59;;;;;;;12.93;9.90;;;5.80;99.90;;;5.25;100.00;101927.63;4125739;28;20027;-66
2021/11/10 04:26:03;;;;;;;14.77;10.45;;;5.80;99.90;;;5.21;100.00;101945.28;4138735;28;20102;-66
2021/11/10 04:28:05;;;;;;;;;;;5.70;99.90;;;5.27;100.00;101944.06;4139006;28;20019;-66
2021/11/10 04:30:07;;;;;;;11.02;9.18;;;5.70;99.90;;;5.15;100.00;101934.34;4138658;28;19917;-66
2021/11/10 04:32:08;;;;;;;12.80;10.50;;;5.60;99.90;;;5.12;100.00;101924.91;4138873;28;20031;-66
2021/11/10 04:34:10;;;;;;;14.90;10.40;;;5.60;99.90;;;5.28;100.00;101941.38;4138783;28;20022;-66
2021/11/10 04:36:12;;;;;;;13.57;9.75;;;5.60;99.90;;;5.49;100.00;101949.69;4138201;28;20034;-66
2021/11/10 04:38:13;;;;;;;10.68;8.95;;;5.60;99.90;;;5.33;100.00;101947.16;4138414;28;20080;-66
2021/11/10 04:40:14;;;;;;;14.23;10.07;;;5.60;99.90;;;5.03;100.00;101949.84;4138270;28;20026;-67
2021/11/10 04:42:15;;;;;;;12.10;10.05;;;5.60;99.90;;;4.90;100.00;101950.63;4137456;28;20402;-66
2021/11/10 04:44:16;;;;;;;14.48;11.13;;;5.50;99.90;;;5.04;100.00;101950.69;4137424;28;20030;-66
2021/11/10 04:46:23;;;;;;;13.73;10.13;;;5.50;99.90;;;5.23;100.00;101958.25;4137403;28;20028;-66
2021/11/10 04:48:24;;;;;;;15.55;9.32;;;5.50;99.90;;;5.33;100.00;101964.63;4133082;28;20037;-66
2021/11/10 04:50:26;;;;;;;13.82;9.77;;;5.60;99.90;;;5.18;100.00;101961.16;4121065;28;20023;-66
2021/11/10 04:52:27;;;;;;;15.45;10.05;;;5.60;99.90;;;5.06;100.00;101969.75;4121370;28;20031;-66
2021/11/10 04:54:32;;;;;;;14.50;9.90;;;5.50;99.90;;;4.95;100.00;101973.00;4121064;28;20078;-66
2021/11/10 04:56:39;;;;;;;12.07;9.55;;;5.50;99.90;;;4.97;100.00;101968.50;4121233;28;20122;-66
2021/11/10 04:58:42;;;;;;;12.77;8.88;;;5.50;99.90;;;4.99;100.00;101965.78;4121200;28;20035;-66
2021/11/10 05:00:45;;;;;;;13.98;9.20;;;5.50;99.90;;;5.04;100.00;101971.59;4121237;28;20030;-66
2021/11/10 05:02:46;;;;;;;14.32;9.50;;;5.50;99.90;;;5.13;100.00;101965.84;4120834;28;20031;-66
2021/11/10 05:04:47;;;;;;;11.90;8.77;;;5.50;99.90;;;5.20;100.00;101956.66;4120933;28;20114;-66
2021/11/10 05:06:47;;;;;;;16.17;10.70;;;5.50;99.90;;;5.19;100.00;101962.00;4121112;28;20023;-66
2021/11/10 05:08:48;;;;;;;13.77;9.80;;;5.60;99.90;;;5.10;100.00;101963.41;4120653;28;20030;-66
2021/11/10 05:10:49;;;;;;;17.77;11.80;;;5.60;99.90;;;5.07;100.00;101967.97;4120881;28;20105;-66
2021/11/10 05:12:50;;;;;;;19.00;11.27;;;5.60;99.90;;;5.08;100.00;101960.00;4121077;28;20031;-66
2021/11/10 05:14:53;;;;;;;17.38;11.02;;;5.60;99.90;;;5.13;100.00;101960.59;4121203;28;20031;-66
2021/11/10 05:16:53;;;;;;;12.85;9.73;;;5.50;99.90;;;5.40;100.00;101971.19;4120836;28;20034;-66
2021/11/10 05:18:54;;;;;;;12.88;9.35;;;5.60;99.90;;;5.36;100.00;101956.59;4120791;28;20027;-66
2021/11/10 05:20:55;;;;;;;18.90;10.60;;;5.70;99.90;;;5.16;100.00;101955.19;4120688;28;20085;-66
2021/11/10 05:22:56;;;;;;;16.35;10.20;;;5.70;99.90;;;5.08;100.00;101964.44;4120744;28;20041;-66
2021/11/10 05:24:57;;;;;;;16.25;10.57;;;5.60;99.90;;;5.08;100.00;101962.63;4120820;28;20089;-66
2021/11/10 05:26:58;;;;;;;16.40;10.23;;;5.60;99.90;;;5.12;100.00;101972.00;4120728;28;20030;-66
2021/11/10 05:28:59;;;;;;;14.43;10.30;;;5.60;99.90;;;5.14;100.00;101966.69;4120783;28;20121;-66
2021/11/10 05:31:00;;;;;;;12.43;9.75;;;5.60;99.90;;;5.11;100.00;101979.94;4120757;28;20019;-65
2021/11/10 05:33:02;;;;;;;11.13;9.23;;;5.60;99.90;;;5.00;100.00;101983.16;4120555;28;20031;-66
2021/11/10 05:35:05;;;;;;;11.07;9.60;;;5.60;99.90;;;4.86;100.00;101978.75;4120270;28;20035;-65
2021/11/10 05:37:05;;;;;;;13.40;10.85;;;5.50;99.90;;;4.84;100.00;101980.59;4120673;28;20038;-66
2021/11/10 05:39:09;;;;;;;14.20;9.75;;;5.50;99.90;;;4.86;100.00;101991.84;4128107;28;20033;-66
2021/11/10 05:41:10;;;;;;;11.75;9.55;;;5.40;99.90;;;4.89;100.00;101996.88;4094899;28;1216021;-66
2021/11/10 05:43:12;;;;;;;11.27;9.90;;;5.40;99.90;;;4.86;100.00;101991.84;4137266;28;20078;-66
2021/11/10 05:45:13;;;;;;;11.27;10.13;;;5.30;99.90;;;4.77;100.00;102002.81;4136407;28;20080;-66
2021/11/10 05:47:14;;;;;;;12.77;9.93;;;5.30;99.90;;;4.64;100.00;101995.75;4128635;28;20510;-66
2021/11/10 05:49:15;;;;;;;14.90;10.77;;;5.20;99.90;;;4.59;100.00;101989.94;4126637;28;20030;-66
2021/11/10 05:51:16;;;;;;;15.40;9.98;;;5.20;99.90;;;4.75;100.00;101994.19;4121135;28;20018;-66
2021/11/10 05:53:17;;;;;;;11.32;9.55;;;5.20;99.90;;;4.85;100.00;101999.75;4121289;28;20041;-66
2021/11/10 05:55:22;;;;;;;11.80;10.23;;;5.10;99.90;;;4.85;100.00;101997.13;4121260;28;20066;-65
2021/11/10 05:57:23;;;;;;;11.05;9.35;;;5.10;99.90;;;4.65;100.00;101994.84;4121321;28;20027;-65
2021/11/10 05:59:24;;;;;;;15.70;10.00;;;5.20;99.90;;;4.57;100.00;102005.69;4121056;28;20035;-66
2021/11/10 06:01:27;;;;;;;12.95;9.20;;;5.10;99.90;;;4.46;100.00;102008.94;4121020;28;20478;-65
2021/11/10 06:03:31;;;;;;;11.85;9.75;;;5.00;99.90;;;4.66;100.00;102001.75;4120776;28;20479;-65
2021/11/10 06:05:32;;;;;;;;;;;5.00;99.90;;;4.72;99.64;102007.44;4121404;28;20026;-65
2021/11/10 06:07:35;;;;;;;11.27;8.98;;;5.00;99.90;;;4.50;100.00;101996.53;4121001;28;20433;-65
2021/11/10 06:09:36;;;;;;;10.32;8.95;;;5.00;99.90;;;4.45;100.00;102006.38;4121062;28;20023;-65
2021/11/10 06:11:37;;;;;;;11.00;8.80;;;5.00;99.90;;;4.50;100.00;102001.78;4121009;28;20034;-65
2021/11/10 06:13:39;;;;;;;17.13;11.52;;;5.00;99.90;;;4.67;100.00;102006.03;4128391;28;20023;-66
2021/11/10 06:15:40;;;;;;;10.98;9.20;;;5.00;99.90;;;4.78;100.00;101996.63;4136871;28;20088;-65
2021/11/10 06:17:42;;;;;;;22.17;11.18;;;5.10;99.90;;;4.62;100.00;102008.91;4136997;28;20030;-65
2021/11/10 06:19:42;;;;;;;14.57;9.90;;;5.10;99.90;;;4.63;100.00;102007.16;4136850;28;20412;-65
2021/11/10 06:21:45;;;;;;;26.35;12.02;;;5.10;99.90;;;4.55;100.00;102015.41;4136418;28;20030;-66
2021/11/10 06:23:46;;;;;;;19.83;10.35;;;5.10;99.90;;;4.55;100.00;102006.72;4136784;28;20397;-66
2021/11/10 06:25:47;;;;;;;14.43;10.30;;;5.10;99.90;;;4.65;100.00;102027.03;4137023;28;20030;-66
2021/11/10 06:27:48;;;;;;;12.25;9.50;;;5.00;99.90;;;4.73;100.00;102037.03;4136840;28;20061;-65
2021/11/10 06:29:49;;;;;;;16.75;9.68;;;5.10;99.90;;;4.53;100.00;102029.50;4136775;28;20029;-66
2021/11/10 06:31:51;;;;;;;14.48;9.40;;;5.10;99.90;;;4.59;100.00;102037.84;4135490;28;20074;-66
2021/11/10 06:33:52;;;;;;;11.05;9.95;;;5.10;99.90;;;4.65;100.00;102034.03;4125052;28;20084;-66
2021/11/10 06:35:52;;;;;;;10.63;8.68;;;5.00;99.90;;;4.61;100.00;102037.72;4136504;28;20460;-65
2021/11/10 06:37:54;;;;;;;10.40;9.30;;;5.00;99.90;;;4.57;100.00;102038.84;4136619;28;20050;-65
2021/11/10 06:39:55;;;;;;;11.35;8.70;;;5.00;99.90;;;4.56;100.00;102034.53;4136461;28;20053;-65
2021/11/10 06:41:56;;;;;;;12.98;8.90;;;5.00;99.90;;;4.45;100.00;102032.50;4136286;28;20047;-65
2021/11/10 06:43:57;;;;;;;10.13;9.02;;;5.00;99.90;;;4.45;100.00;102043.81;4136629;28;20057;-65
2021/11/10 06:45:58;;;;;;;10.45;8.90;;;4.90;99.90;;;4.45;100.00;102037.75;4136606;28;20026;-65
2021/11/10 06:47:59;;;;;;;13.68;9.05;;;4.90;99.90;;;4.41;100.00;102026.66;4135844;28;20026;-65
2021/11/10 06:50:01;;;;;;;9.95;8.57;;;4.90;99.90;;;4.53;100.00;102045.16;4120035;28;20054;-65
2021/11/10 06:52:02;;;;;;;11.02;8.25;;;4.90;99.90;;;4.36;100.00;102043.50;4120238;28;20057;-65
2021/11/10 06:54:03;;;;;;;9.70;8.15;;;4.80;99.90;;;4.36;100.00;102044.31;4120330;28;20026;-65
2021/11/10 06:56:05;;;;;;;10.23;9.02;;;4.80;99.90;;;4.43;100.00;102050.91;4120110;28;20034;-65
2021/11/10 06:58:07;;;;;;;9.20;7.63;;;4.80;99.90;;;4.48;100.00;102054.09;4120448;28;20071;-65
2021/11/10 07:00:12;;;;;;;10.80;8.27;;;4.80;99.90;;;4.37;99.71;102053.84;4120184;28;20035;-65
2021/11/10 07:02:13;;;;;;;8.93;8.02;;;4.80;99.90;;;4.26;100.00;102053.59;4120377;28;20035;-65
2021/11/10 07:04:14;;;;;;;8.50;7.60;;;4.80;99.90;;;4.20;100.00;102050.47;4120094;28;20030;-65
2021/11/10 07:06:15;;;;;;;8.38;7.57;;;4.70;99.90;;;4.15;100.00;102050.72;4120006;28;20086;-66
2021/11/10 07:08:16;;;;;;;8.43;7.63;;;4.70;99.90;;;4.23;100.00;102053.78;4120012;28;20364;-65
2021/11/10 07:10:17;;;;;;;9.30;7.85;;;4.70;99.90;;;4.26;100.00;102064.06;4133307;28;20101;-66
2021/11/10 07:12:18;;;;;;;8.73;7.82;;;4.70;99.90;;;4.17;100.00;102061.09;4136011;28;20069;-66
2021/11/10 07:14:19;;;;;;;10.73;7.60;;;4.60;99.90;;;4.13;100.00;102068.25;4136086;28;20034;-66
2021/11/10 07:16:20;;;;;;;13.10;8.20;;;4.60;99.90;;;4.02;100.00;102073.19;4136282;28;20089;-66
2021/11/10 07:18:22;;;;;;;8.65;7.45;;;4.60;99.90;;;4.03;100.00;102076.66;4136076;28;20053;-66
2021/11/10 07:20:23;;;;;;;9.38;7.90;;;4.60;99.90;;;4.01;100.00;102079.34;4135385;28;20066;-65
2021/11/10 07:22:24;;;;;;;12.18;8.75;;;4.50;99.90;;;4.09;100.00;102082.38;4134367;28;20072;-66
2021/11/10 07:24:25;;;;;;;11.77;8.13;;;4.50;99.90;;;4.09;100.00;102087.59;4135856;28;20022;-66
2021/11/10 07:26:26;;;;;;;11.05;8.70;;;4.60;99.90;;;3.96;100.00;102086.59;4135951;28;20030;-66
2021/11/10 07:28:27;;;;;;;9.25;8.25;;;4.50;99.90;;;4.09;100.00;102081.56;4135963;28;20053;-65
2021/11/10 07:30:28;;;;;;;15.93;8.20;;;4.60;99.90;;;4.35;98.52;102089.69;4135950;28;20042;-66
2021/11/10 07:32:29;;;;;;;8.82;7.93;;;4.60;99.90;;;4.45;97.52;102085.63;4135836;28;20028;-66
2021/11/10 07:34:30;;;;;;;10.25;9.15;;;4.70;99.90;;;4.44;97.93;102081.34;4135799;28;20050;-66
2021/11/10 07:36:31;;;;;;;9.38;8.32;;;4.80;99.90;;;4.43;98.02;102087.47;4134099;28;20083;-65
2021/11/10 07:38:39;;;;;;;8.93;8.13;;;4.80;99.90;;;4.36;98.91;102088.72;4122512;28;20026;-66
2021/11/10 07:40:40;;;;;;;11.38;9.95;;;4.90;99.90;;;4.45;99.52;102090.84;4136335;28;20050;-66
2021/11/10 07:42:42;;;;;;;10.70;8.65;;;4.90;99.90;;;4.34;100.00;102081.91;4136498;28;20030;-66
2021/11/10 07:44:43;;;;;;;17.75;9.52;;;4.90;99.90;;;4.23;100.00;102074.66;4136436;28;20026;-66
2021/11/10 07:46:52;;;;;;;13.07;9.80;;;4.90;99.90;;;4.15;100.00;102068.19;4136679;28;20106;-66
2021/11/10 07:48:53;;;;;;;9.98;8.98;;;4.90;99.90;;;4.43;100.00;102073.56;4128437;28;20034;-66
2021/11/10 07:50:54;;;;;;;14.77;8.73;;;5.00;99.90;;;4.37;100.00;102087.81;4120411;28;20042;-66
2021/11/10 07:52:55;;;;;;;24.42;9.82;;;5.00;99.90;;;4.19;100.00;102082.72;4120236;28;20030;-66
2021/11/10 07:54:56;;;;;;;10.77;8.70;;;4.90;99.90;;;4.50;100.00;102087.16;4134246;28;20109;-66
2021/11/10 07:56:57;;;;;;;9.57;8.57;;;5.00;99.90;;;4.45;100.00;102098.69;4127937;28;20034;-65
2021/11/10 07:58:58;;;;;;;10.43;9.32;;;5.00;99.90;;;4.43;100.00;102103.16;4119527;28;20027;-66
2021/11/10 08:00:59;;;;;;;9.30;8.40;;;5.00;99.90;;;4.50;100.00;102093.22;4118204;28;20031;-65
2021/11/10 08:03:00;;;;;;;9.90;7.65;;;5.10;99.90;;;4.55;100.00;102100.78;4118049;28;20027;-66
2021/11/10 08:05:01;;;;;;;9.35;8.13;;;5.10;99.90;;;4.51;100.00;102102.72;4118341;28;20038;-66
2021/11/10 08:07:02;;;;;;;13.25;9.68;;;5.10;99.90;;;4.35;100.00;102099.28;4118538;28;20046;-65
2021/11/10 08:09:03;;;;;;;8.73;7.88;;;5.10;99.90;;;4.29;100.00;102104.84;4118589;28;20081;-65
2021/11/10 08:11:04;;;;;;;9.75;8.73;;;5.00;99.90;;;4.32;100.00;102102.91;4118589;28;20046;-66
2021/11/10 08:13:06;;;;;;;9.77;8.38;;;5.00;99.90;;;4.30;100.00;102098.69;4118262;28;20035;-66
2021/11/10 08:15:12;;;;;;;9.95;8.05;;;5.00;99.90;;;4.50;100.00;102108.03;4118808;28;20059;-66
2021/11/10 08:17:13;;;;;;;9.68;8.68;;;5.00;99.90;;;4.59;100.00;102110.16;4119277;28;20034;-66
2021/11/10 08:19:14;;;;;;;9.18;7.78;;;5.10;99.90;;;4.63;100.00;102103.84;4119430;28;20087;-66
2021/11/10 08:21:16;;;;;;;8.82;7.93;;;5.10;99.90;;;4.60;100.00;102104.84;4119240;28;20034;-65
2021/11/10 08:23:20;;;;;;;10.82;8.48;;;5.10;99.90;;;4.60;100.00;102109.25;4119262;28;20031;-66